createdAt,value
2018-08-12T00:01:49.197Z,64.70
2018-08-12T00:06:52.283Z,64.87
2018-08-12T00:11:55.396Z,64.19
2018-08-12T00:16:58.465Z,64.52
2018-08-12T00:22:01.554Z,64.35
2018-08-12T00:27:04.667Z,64.75
2018-08-12T00:32:07.797Z,64.72
2018-08-12T00:37:10.881Z,65.04
2018-08-12T00:42:14.017Z,64.81
2018-08-12T00:47:17.118Z,64.76
2018-08-12T00:52:20.202Z,64.38
2018-08-12T00:57:23.281Z,65.01
2018-08-12T01:02:26.480Z,64.72
2018-08-12T01:07:29.594Z,65.16
2018-08-12T01:12:32.752Z,64.70
2018-08-12T01:17:35.894Z,64.98
2018-08-12T01:22:39.743Z,65.11
2018-08-12T01:27:42.986Z,65.24
2018-08-12T01:32:47.000Z,65.45
2018-08-12T01:37:50.109Z,65.39
2018-08-12T01:42:53.217Z,65.57
2018-08-12T01:47:56.338Z,65.25
2018-08-12T01:52:59.404Z,65.73
2018-08-12T01:58:02.614Z,65.54
2018-08-12T02:03:05.704Z,64.86
2018-08-12T02:08:08.933Z,65.03
2018-08-12T02:13:11.995Z,65.47
2018-08-12T02:18:15.065Z,66.00
2018-08-12T02:23:18.113Z,65.76
2018-08-12T02:28:21.187Z,65.71
2018-08-12T02:33:24.284Z,66.17
2018-08-12T02:38:27.337Z,66.29
2018-08-12T02:43:30.397Z,66.31
2018-08-12T02:48:33.613Z,65.89
2018-08-12T02:53:36.712Z,66.53
2018-08-12T02:58:39.753Z,66.00
2018-08-12T03:03:42.882Z,65.86
2018-08-12T03:08:46.013Z,65.94
2018-08-12T03:13:49.115Z,66.20
2018-08-12T03:18:52.217Z,66.29
2018-08-12T03:23:55.304Z,66.77
2018-08-12T03:28:58.472Z,67.43
2018-08-12T03:34:01.539Z,67.56
2018-08-12T03:39:08.136Z,67.09
2018-08-12T03:44:11.168Z,67.16
2018-08-12T03:49:14.229Z,66.81
2018-08-12T03:54:17.363Z,66.85
2018-08-12T03:59:20.373Z,67.28
2018-08-12T04:04:23.375Z,66.60
2018-08-12T04:09:26.421Z,66.55
2018-08-12T04:14:29.467Z,66.40
2018-08-12T04:19:32.569Z,66.49
2018-08-12T04:24:35.617Z,65.67
2018-08-12T04:29:38.664Z,65.65
2018-08-12T04:34:41.814Z,65.89
2018-08-12T04:39:44.870Z,65.60
2018-08-12T04:44:47.945Z,64.99
2018-08-12T04:49:50.969Z,65.48
2018-08-12T04:54:54.038Z,64.75
2018-08-12T04:59:57.128Z,63.56
2018-08-12T05:05:00.215Z,63.04
2018-08-12T05:10:03.956Z,62.31
2018-08-12T05:15:08.422Z,62.07
2018-08-12T05:20:11.530Z,60.71
2018-08-12T05:25:14.543Z,60.12
2018-08-12T05:30:17.618Z,59.93
2018-08-12T05:35:20.701Z,59.46
2018-08-12T05:40:23.749Z,59.12
2018-08-12T05:45:26.854Z,58.29
2018-08-12T05:50:29.971Z,58.22
2018-08-12T05:55:33.099Z,58.21
2018-08-12T06:00:36.178Z,57.58
2018-08-12T06:05:39.262Z,57.01
2018-08-12T06:10:42.400Z,56.21
2018-08-12T06:15:45.588Z,54.22
2018-08-12T06:20:48.653Z,53.29
2018-08-12T06:25:51.751Z,52.67
2018-08-12T06:30:54.953Z,51.93
2018-08-12T06:35:58.129Z,50.52
2018-08-12T06:41:04.066Z,49.96
2018-08-12T06:46:10.522Z,50.14
2018-08-12T06:51:16.456Z,49.46
2018-08-12T06:56:21.584Z,48.59
2018-08-12T07:01:25.749Z,48.09
2018-08-12T07:06:31.333Z,47.62
2018-08-12T07:11:35.757Z,47.65
2018-08-12T07:16:41.464Z,46.19
2018-08-12T07:21:48.864Z,45.18
2018-08-12T07:26:54.063Z,45.02
2018-08-12T07:31:58.754Z,44.36
2018-08-12T07:37:03.206Z,43.87
2018-08-12T07:42:06.505Z,43.19
2018-08-12T07:47:09.597Z,42.85
2018-08-12T07:52:12.830Z,42.90
2018-08-12T07:57:16.166Z,42.27
2018-08-12T08:02:19.553Z,41.00
2018-08-12T08:07:22.877Z,41.09
2018-08-12T08:12:27.056Z,40.61
2018-08-12T08:17:30.317Z,40.33
2018-08-12T08:22:33.409Z,41.08
2018-08-12T08:27:36.757Z,41.07
2018-08-12T08:32:39.875Z,40.57
2018-08-12T08:37:43.496Z,40.28
2018-08-12T08:42:46.680Z,39.41
2018-08-12T08:47:51.062Z,37.67
2018-08-12T08:52:54.182Z,36.77
2018-08-12T08:57:57.249Z,36.32
2018-08-12T09:03:00.348Z,36.25
2018-08-12T09:08:03.543Z,35.71
2018-08-12T09:13:06.621Z,35.10
2018-08-12T09:18:09.791Z,34.18
2018-08-12T09:23:12.850Z,33.81
2018-08-12T09:28:15.910Z,33.66
2018-08-12T09:33:19.129Z,32.98
2018-08-12T09:38:22.213Z,32.96
2018-08-12T09:43:25.337Z,33.01
2018-08-12T09:48:28.545Z,32.64
2018-08-12T09:53:31.686Z,32.24
2018-08-12T09:58:34.844Z,32.21
2018-08-12T10:03:37.810Z,31.84
2018-08-12T10:08:40.929Z,31.26
2018-08-12T10:13:44.027Z,30.88
2018-08-12T10:18:47.154Z,30.80
2018-08-12T10:23:50.185Z,30.42
2018-08-12T10:28:53.364Z,30.56
2018-08-12T10:33:56.476Z,31.03
2018-08-12T10:38:59.526Z,30.50
2018-08-12T10:44:02.758Z,30.13
2018-08-12T10:49:05.939Z,30.90
2018-08-12T10:54:09.104Z,30.27
2018-08-12T10:59:12.267Z,30.61
2018-08-12T11:04:15.358Z,30.81
2018-08-12T11:09:19.049Z,30.02
2018-08-12T11:14:22.290Z,31.26
2018-08-12T11:19:25.412Z,30.52
2018-08-12T11:24:28.488Z,30.00
2018-08-12T11:29:31.574Z,29.96
2018-08-12T11:34:34.662Z,29.67
2018-08-12T11:39:37.818Z,29.98
2018-08-12T11:44:40.945Z,31.06
2018-08-12T11:49:44.021Z,31.54
2018-08-12T11:54:47.189Z,30.06
2018-08-12T11:59:50.430Z,29.75
2018-08-12T12:04:53.570Z,30.70
2018-08-12T12:09:56.709Z,30.82
2018-08-12T12:14:59.938Z,31.64
2018-08-12T12:20:03.849Z,30.95
2018-08-12T12:25:09.137Z,31.18
2018-08-12T12:30:17.289Z,32.03
2018-08-12T12:35:20.502Z,31.65
2018-08-12T12:40:23.576Z,31.48
2018-08-12T12:45:26.664Z,32.09
2018-08-12T12:50:29.757Z,31.62
2018-08-12T12:55:32.903Z,32.36
2018-08-12T13:00:36.013Z,32.01
2018-08-12T13:05:39.147Z,32.06
2018-08-12T13:10:42.197Z,32.51
2018-08-12T13:15:45.269Z,32.60
2018-08-12T13:20:48.382Z,32.71
2018-08-12T13:25:51.530Z,32.64
2018-08-12T13:30:54.626Z,32.49
2018-08-12T13:35:57.869Z,32.61
2018-08-12T13:41:00.997Z,31.96
2018-08-12T13:46:04.150Z,30.83
2018-08-12T13:51:07.327Z,31.20
2018-08-12T13:56:10.464Z,30.37
2018-08-12T14:01:13.572Z,31.34
2018-08-12T14:06:16.696Z,30.91
2018-08-12T14:11:19.808Z,30.37
2018-08-12T14:16:22.930Z,30.98
2018-08-12T14:21:26.118Z,30.52
2018-08-12T14:26:29.549Z,29.92
2018-08-12T14:31:32.592Z,30.04
2018-08-12T14:36:35.660Z,30.04
2018-08-12T14:41:38.789Z,29.99
2018-08-12T14:46:41.861Z,29.84
2018-08-12T14:51:44.970Z,29.42
2018-08-12T14:56:48.081Z,29.21
2018-08-12T15:01:51.197Z,30.04
2018-08-12T15:06:54.313Z,29.63
2018-08-12T15:11:57.441Z,29.07
2018-08-12T15:17:00.636Z,28.89
2018-08-12T15:22:03.733Z,29.52
2018-08-12T15:27:06.835Z,29.21
2018-08-12T15:32:10.245Z,29.40
2018-08-12T15:37:13.400Z,28.76
2018-08-12T15:42:16.521Z,29.11
2018-08-12T15:47:19.696Z,28.53
2018-08-12T15:52:22.767Z,28.29
2018-08-12T15:57:25.886Z,28.60
2018-08-12T16:02:29.298Z,28.82
2018-08-12T16:07:32.415Z,28.58
2018-08-12T16:12:35.497Z,28.70
2018-08-12T16:17:39.461Z,29.18
2018-08-12T16:22:42.676Z,28.37
2018-08-12T16:27:47.376Z,28.47
2018-08-12T16:32:50.551Z,29.32
2018-08-12T16:37:53.658Z,28.92
2018-08-12T16:42:56.845Z,29.03
2018-08-12T16:48:00.045Z,29.61
2018-08-12T16:53:03.221Z,29.32
2018-08-12T16:58:06.460Z,29.73
2018-08-12T17:03:09.609Z,29.85
2018-08-12T17:08:12.951Z,30.85
2018-08-12T17:13:16.129Z,30.57
2018-08-12T17:18:20.640Z,31.48
2018-08-12T17:23:23.859Z,31.81
2018-08-12T17:28:28.387Z,31.82
2018-08-12T17:33:32.204Z,32.03
2018-08-12T17:38:35.656Z,32.44
2018-08-12T17:43:38.902Z,33.15
2018-08-12T17:48:42.026Z,33.01
2018-08-12T17:53:45.112Z,33.75
2018-08-12T17:58:48.467Z,33.82
2018-08-12T18:03:51.605Z,34.63
2018-08-12T18:08:54.977Z,34.08
2018-08-12T18:13:58.194Z,34.97
2018-08-12T18:19:01.693Z,36.33
2018-08-12T18:24:05.689Z,35.87
2018-08-12T18:29:09.698Z,36.48
2018-08-12T18:34:12.818Z,36.71
2018-08-12T18:39:15.982Z,39.02
2018-08-12T18:44:19.130Z,39.29
2018-08-12T18:49:22.241Z,39.18
2018-08-12T18:54:28.751Z,39.49
2018-08-12T18:59:32.385Z,40.70
2018-08-12T19:04:36.089Z,41.40
2018-08-12T19:09:40.305Z,43.11
2018-08-12T19:14:44.261Z,44.18
2018-08-12T19:19:48.102Z,45.59
2018-08-12T19:24:52.057Z,46.49
2018-08-12T19:29:55.814Z,47.02
2018-08-12T19:34:59.865Z,48.08
2018-08-12T19:40:04.590Z,49.27
2018-08-12T19:45:10.301Z,49.76
2018-08-12T19:50:13.910Z,50.67
2018-08-12T19:55:17.009Z,51.24
2018-08-12T20:00:20.081Z,51.97
2018-08-12T20:05:23.182Z,52.04
2018-08-12T20:10:26.265Z,49.81
2018-08-12T20:15:29.307Z,48.69
2018-08-12T20:20:32.414Z,48.46
2018-08-12T20:25:35.542Z,49.08
2018-08-12T20:30:38.659Z,48.79
2018-08-12T20:35:41.702Z,47.95
2018-08-12T20:40:44.737Z,48.40
2018-08-12T20:45:48.589Z,48.10
2018-08-12T20:50:51.703Z,48.37
2018-08-12T20:55:54.871Z,48.72
2018-08-12T21:00:57.994Z,48.71
2018-08-12T21:06:01.048Z,48.14
2018-08-12T21:11:04.129Z,48.48
2018-08-12T21:16:07.263Z,47.94
2018-08-12T21:21:10.416Z,47.63
2018-08-12T21:26:13.576Z,47.61
2018-08-12T21:31:16.572Z,47.96
2018-08-12T21:36:19.679Z,48.21
2018-08-12T21:41:22.799Z,48.93
2018-08-12T21:46:25.877Z,48.96
2018-08-12T21:51:28.954Z,50.16
2018-08-12T21:56:32.070Z,50.28
2018-08-12T22:01:35.525Z,50.33
2018-08-12T22:06:38.586Z,50.40
2018-08-12T22:11:41.710Z,49.85
2018-08-12T22:16:44.766Z,50.68
2018-08-12T22:21:47.838Z,50.15
2018-08-12T22:26:50.906Z,50.94
2018-08-12T22:31:54.020Z,51.25
2018-08-12T22:36:57.111Z,52.06
2018-08-12T22:42:00.282Z,51.83
2018-08-12T22:47:03.408Z,52.13
2018-08-12T22:52:06.713Z,52.21
2018-08-12T22:57:09.865Z,53.10
2018-08-12T23:02:13.003Z,52.60
2018-08-12T23:07:16.074Z,53.46
2018-08-12T23:12:19.226Z,53.67
2018-08-12T23:17:22.263Z,53.13
2018-08-12T23:22:25.315Z,53.37
2018-08-12T23:27:28.384Z,53.02
2018-08-12T23:32:31.416Z,52.43
2018-08-12T23:37:34.474Z,52.41
2018-08-12T23:42:37.550Z,51.83
2018-08-12T23:47:40.601Z,52.83
2018-08-12T23:52:43.672Z,52.63
2018-08-12T23:57:46.718Z,52.89
